createdAt,value
2019-02-24T00:02:16.806Z,76.27
2019-02-24T00:04:47.011Z,76.27
2019-02-24T00:07:17.385Z,76.29
2019-02-24T00:09:47.710Z,76.23
2019-02-24T00:12:17.876Z,76.21
2019-02-24T00:14:48.118Z,76.22
2019-02-24T00:17:18.378Z,76.19
2019-02-24T00:19:48.527Z,76.17
2019-02-24T00:22:18.815Z,76.10
2019-02-24T00:24:49.026Z,76.11
2019-02-24T00:27:19.071Z,76.05
2019-02-24T00:29:49.220Z,76.05
2019-02-24T00:32:19.513Z,76.06
2019-02-24T00:34:49.766Z,76.03
2019-02-24T00:37:19.867Z,76.03
2019-02-24T00:39:49.990Z,76.06
2019-02-24T00:42:20.085Z,76.02
2019-02-24T00:44:50.234Z,75.99
2019-02-24T00:47:20.458Z,76.01
2019-02-24T00:49:50.723Z,76.06
2019-02-24T00:52:21.786Z,76.05
2019-02-24T00:54:52.054Z,76.04
2019-02-24T00:57:22.340Z,75.93
2019-02-24T00:59:52.518Z,75.90
2019-02-24T01:02:22.617Z,75.90
2019-02-24T01:04:52.775Z,75.95
2019-02-24T01:07:23.066Z,75.98
2019-02-24T01:09:53.172Z,76.01
2019-02-24T01:12:23.337Z,76.00
2019-02-24T01:14:53.460Z,76.03
2019-02-24T01:17:23.545Z,76.05
2019-02-24T01:19:53.848Z,76.03
2019-02-24T01:22:23.913Z,76.06
2019-02-24T01:24:54.004Z,76.11
2019-02-24T01:27:24.150Z,76.10
2019-02-24T01:29:54.374Z,76.11
2019-02-24T01:32:24.496Z,76.11
2019-02-24T01:34:54.728Z,76.12
2019-02-24T01:37:25.034Z,76.17
2019-02-24T01:39:55.250Z,76.22
2019-02-24T01:42:25.990Z,76.27
2019-02-24T01:44:56.138Z,76.28
2019-02-24T01:47:26.289Z,76.30
2019-02-24T01:49:56.558Z,76.38
2019-02-24T01:52:26.693Z,76.39
2019-02-24T01:54:56.871Z,76.42
2019-02-24T01:57:27.018Z,76.49
2019-02-24T01:59:57.170Z,76.55
2019-02-24T02:02:27.309Z,76.63
2019-02-24T02:04:58.581Z,76.74
2019-02-24T02:07:28.965Z,76.73
2019-02-24T02:09:59.172Z,76.74
2019-02-24T02:12:29.907Z,76.85
2019-02-24T02:15:02.630Z,76.96
2019-02-24T02:17:32.849Z,77.03
2019-02-24T02:20:03.149Z,77.09
2019-02-24T02:22:33.329Z,77.05
2019-02-24T02:25:03.726Z,77.00
2019-02-24T02:27:34.040Z,76.96
2019-02-24T02:30:04.381Z,76.96
2019-02-24T02:32:34.630Z,76.86
2019-02-24T02:35:05.744Z,76.72
2019-02-24T02:37:36.094Z,76.63
2019-02-24T02:40:06.920Z,76.61
2019-02-24T02:42:37.078Z,76.59
2019-02-24T02:45:08.080Z,76.57
2019-02-24T02:47:38.163Z,76.56
2019-02-24T02:50:08.398Z,76.52
2019-02-24T02:52:38.519Z,76.52
2019-02-24T02:55:08.820Z,76.52
2019-02-24T02:57:38.998Z,76.52
2019-02-24T03:00:36.712Z,76.48
2019-02-24T03:03:06.917Z,76.50
2019-02-24T03:05:37.166Z,76.51
2019-02-24T03:08:12.305Z,76.50
2019-02-24T03:10:42.596Z,76.54
2019-02-24T03:13:12.673Z,76.57
2019-02-24T03:15:42.750Z,76.64
2019-02-24T03:18:12.886Z,76.70
2019-02-24T03:20:44.307Z,76.74
2019-02-24T03:23:14.382Z,76.75
2019-02-24T03:25:44.542Z,76.79
2019-02-24T03:28:14.702Z,76.76
2019-02-24T03:30:44.834Z,76.80
2019-02-24T03:33:14.898Z,76.76
2019-02-24T03:35:45.087Z,76.80
2019-02-24T03:38:15.224Z,76.84
2019-02-24T03:40:45.514Z,76.86
2019-02-24T03:43:15.809Z,76.87
2019-02-24T03:45:45.970Z,76.92
2019-02-24T03:48:16.172Z,76.99
2019-02-24T03:50:46.244Z,77.00
2019-02-24T03:53:16.394Z,77.07
2019-02-24T03:55:46.500Z,77.17
2019-02-24T03:58:16.761Z,77.24
2019-02-24T04:00:46.949Z,77.31
2019-02-24T04:03:17.242Z,77.32
2019-02-24T04:05:47.410Z,77.37
2019-02-24T04:08:17.632Z,77.41
2019-02-24T04:10:47.916Z,77.49
2019-02-24T04:13:18.075Z,77.59
2019-02-24T04:15:48.396Z,77.65
2019-02-24T04:18:18.643Z,77.73
2019-02-24T04:20:48.804Z,77.78
2019-02-24T04:23:18.902Z,77.84
2019-02-24T04:25:49.055Z,77.94
2019-02-24T04:28:19.424Z,77.91
2019-02-24T04:30:49.581Z,77.92
2019-02-24T04:33:27.644Z,77.90
2019-02-24T04:36:06.079Z,77.94
2019-02-24T04:38:36.331Z,78.02
2019-02-24T04:41:06.949Z,78.14
2019-02-24T04:43:37.256Z,78.21
2019-02-24T04:46:07.308Z,78.30
2019-02-24T04:48:37.567Z,78.35
2019-02-24T04:51:07.763Z,78.31
2019-02-24T04:53:41.113Z,78.35
2019-02-24T04:56:11.192Z,78.31
2019-02-24T04:58:41.721Z,78.32
2019-02-24T05:01:12.110Z,78.35
2019-02-24T05:03:42.631Z,78.35
2019-02-24T05:06:13.187Z,78.31
2019-02-24T05:08:43.598Z,78.36
2019-02-24T05:11:18.641Z,78.42
2019-02-24T05:13:49.217Z,78.51
2019-02-24T05:16:19.691Z,78.58
2019-02-24T05:18:50.331Z,78.63
2019-02-24T05:21:20.665Z,78.67
2019-02-24T05:23:51.168Z,78.68
2019-02-24T05:26:21.675Z,78.76
2019-02-24T05:28:52.147Z,78.81
2019-02-24T05:33:52.691Z,79.01
2019-02-24T05:36:23.184Z,79.04
2019-02-24T05:38:53.768Z,79.01
2019-02-24T05:41:24.409Z,78.96
2019-02-24T05:43:54.890Z,78.88
2019-02-24T05:46:25.325Z,78.87
2019-02-24T05:48:55.852Z,78.84
2019-02-24T05:51:26.393Z,78.87
2019-02-24T05:53:56.880Z,78.98
2019-02-24T05:56:27.324Z,79.02
2019-02-24T05:58:57.840Z,79.06
2019-02-24T06:01:28.368Z,79.05
2019-02-24T06:03:58.720Z,79.20
2019-02-24T06:06:29.273Z,79.33
2019-02-24T06:11:47.111Z,79.32
2019-02-24T06:14:17.703Z,79.28
2019-02-24T06:16:48.166Z,79.34
2019-02-24T06:19:18.778Z,79.43
2019-02-24T06:21:49.074Z,79.41
2019-02-24T06:24:19.525Z,79.35
2019-02-24T06:26:50.059Z,79.37
2019-02-24T06:29:20.579Z,79.33
2019-02-24T06:31:51.452Z,79.24
2019-02-24T06:34:22.251Z,79.25
2019-02-24T06:36:52.874Z,79.26
2019-02-24T06:39:23.209Z,79.38
2019-02-24T06:41:53.724Z,79.44
2019-02-24T06:44:23.883Z,79.44
2019-02-24T06:46:54.110Z,79.49
2019-02-24T06:49:24.267Z,79.49
2019-02-24T06:51:54.513Z,79.50
2019-02-24T06:54:24.577Z,79.53
2019-02-24T06:56:54.994Z,79.55
2019-02-24T06:59:25.320Z,79.55
2019-02-24T07:02:08.789Z,79.55
2019-02-24T07:04:38.911Z,79.54
2019-02-24T07:07:09.105Z,79.51
2019-02-24T07:09:39.390Z,79.51
2019-02-24T07:12:09.552Z,79.54
2019-02-24T07:14:39.730Z,79.56
2019-02-24T07:17:09.981Z,79.54
2019-02-24T07:19:40.337Z,79.49
2019-02-24T07:22:10.627Z,79.41
2019-02-24T07:24:43.857Z,79.30
2019-02-24T07:27:14.205Z,79.19
2019-02-24T07:29:44.468Z,79.14
2019-02-24T07:32:14.695Z,79.05
2019-02-24T07:34:44.884Z,78.99
2019-02-24T07:37:17.272Z,78.95
2019-02-24T07:39:49.724Z,78.86
2019-02-24T07:42:20.240Z,78.79
2019-02-24T07:44:50.569Z,78.75
2019-02-24T07:47:20.932Z,78.72
2019-02-24T07:49:51.245Z,78.67
2019-02-24T07:52:21.485Z,78.58
2019-02-24T07:54:51.715Z,78.49
2019-02-24T07:57:21.901Z,78.39
2019-02-24T07:59:52.074Z,78.32
2019-02-24T08:02:22.350Z,78.24
2019-02-24T08:04:52.596Z,78.06
2019-02-24T08:07:22.740Z,77.98
2019-02-24T08:09:52.871Z,77.92
2019-02-24T08:12:23.070Z,77.88
2019-02-24T08:14:53.252Z,77.84
2019-02-24T08:17:25.771Z,77.71
2019-02-24T08:19:55.248Z,77.54
2019-02-24T08:22:25.550Z,77.43
2019-02-24T08:25:00.274Z,77.31
2019-02-24T08:27:30.507Z,77.12
2019-02-24T08:30:02.539Z,77.04
2019-02-24T08:32:32.768Z,76.82
2019-02-24T08:35:02.951Z,76.63
2019-02-24T08:37:33.255Z,76.45
2019-02-24T08:40:03.633Z,76.19
2019-02-24T08:42:33.859Z,75.83
2019-02-24T08:45:04.158Z,75.50
2019-02-24T08:47:34.416Z,75.28
2019-02-24T08:50:05.278Z,75.11
2019-02-24T08:52:35.563Z,74.76
2019-02-24T08:55:07.010Z,74.47
2019-02-24T08:57:37.216Z,74.32
2019-02-24T09:00:09.752Z,74.07
2019-02-24T09:02:39.930Z,73.75
2019-02-24T09:05:15.925Z,73.43
2019-02-24T09:07:46.069Z,73.08
2019-02-24T09:10:19.304Z,72.91
2019-02-24T09:12:49.567Z,72.47
2019-02-24T09:15:20.087Z,72.03
2019-02-24T09:17:50.316Z,71.74
2019-02-24T09:20:20.594Z,71.20
2019-02-24T09:22:50.836Z,70.73
2019-02-24T09:25:21.045Z,70.24
2019-02-24T09:27:51.371Z,69.68
2019-02-24T09:30:21.495Z,69.02
2019-02-24T09:32:51.596Z,68.32
2019-02-24T09:35:21.819Z,67.79
2019-02-24T09:37:51.973Z,67.26
2019-02-24T09:40:22.134Z,66.33
2019-02-24T09:42:52.291Z,65.78
2019-02-24T09:45:22.507Z,65.54
2019-02-24T09:47:52.739Z,65.01
2019-02-24T09:50:24.320Z,64.58
2019-02-24T09:52:54.672Z,64.45
2019-02-24T09:55:25.002Z,64.18
2019-02-24T09:57:55.464Z,63.86
2019-02-24T10:00:25.610Z,63.64
2019-02-24T10:02:57.525Z,63.12
2019-02-24T10:05:27.961Z,62.94
2019-02-24T10:07:59.287Z,62.63
2019-02-24T10:10:29.386Z,62.40
2019-02-24T10:12:59.597Z,62.10
2019-02-24T10:15:29.889Z,61.92
2019-02-24T10:18:00.209Z,61.62
2019-02-24T10:20:30.416Z,61.11
2019-02-24T10:23:01.170Z,60.71
2019-02-24T10:25:31.248Z,60.39
2019-02-24T10:28:03.196Z,60.03
2019-02-24T10:30:33.414Z,59.69
2019-02-24T10:33:06.202Z,59.53
2019-02-24T10:35:36.436Z,59.35
2019-02-24T10:38:06.953Z,59.24
2019-02-24T10:40:37.286Z,59.01
2019-02-24T10:43:07.552Z,58.91
2019-02-24T10:45:37.621Z,58.72
2019-02-24T10:48:13.946Z,58.58
2019-02-24T10:50:39.998Z,58.36
2019-02-24T10:53:10.321Z,58.11
2019-02-24T10:55:40.648Z,57.87
2019-02-24T10:58:10.981Z,57.74
2019-02-24T11:00:41.291Z,57.28
2019-02-24T11:03:11.638Z,56.96
2019-02-24T11:05:41.852Z,56.80
2019-02-24T11:08:12.094Z,56.47
2019-02-24T11:10:42.601Z,56.22
2019-02-24T11:13:14.134Z,56.13
2019-02-24T11:15:44.284Z,56.13
2019-02-24T11:18:14.420Z,55.96
2019-02-24T11:20:44.552Z,55.69
2019-02-24T11:23:14.711Z,55.31
2019-02-24T11:25:44.833Z,55.08
2019-02-24T11:28:15.054Z,55.12
2019-02-24T11:30:45.296Z,55.05
2019-02-24T11:33:15.390Z,55.17
2019-02-24T11:35:45.699Z,55.07
2019-02-24T11:38:16.031Z,55.01
2019-02-24T11:40:46.358Z,54.70
2019-02-24T11:43:16.604Z,54.53
2019-02-24T11:45:46.773Z,54.24
2019-02-24T11:48:16.931Z,53.94
2019-02-24T11:50:47.185Z,53.64
2019-02-24T11:53:17.287Z,53.49
2019-02-24T11:55:47.470Z,53.25
2019-02-24T11:58:17.566Z,52.91
2019-02-24T12:00:47.872Z,52.63
2019-02-24T12:03:18.043Z,52.26
2019-02-24T12:05:48.301Z,51.55
2019-02-24T12:08:18.484Z,51.20
2019-02-24T12:10:48.602Z,51.02
2019-02-24T12:13:18.876Z,50.34
2019-02-24T12:15:49.118Z,50.03
2019-02-24T12:18:19.333Z,50.20
2019-02-24T12:20:49.661Z,50.40
2019-02-24T12:23:19.976Z,50.60
2019-02-24T12:25:50.342Z,50.94
2019-02-24T12:28:20.790Z,51.00
2019-02-24T12:30:51.111Z,50.71
2019-02-24T12:33:21.378Z,50.49
2019-02-24T12:35:51.697Z,50.18
2019-02-24T12:38:22.018Z,49.81
2019-02-24T12:40:54.330Z,49.43
2019-02-24T12:43:24.717Z,49.07
2019-02-24T12:45:56.953Z,48.73
2019-02-24T12:48:27.071Z,48.62
2019-02-24T12:50:57.319Z,48.34
2019-02-24T12:53:27.692Z,48.15
2019-02-24T12:55:57.985Z,47.95
2019-02-24T12:58:28.265Z,47.28
2019-02-24T13:00:58.594Z,46.44
2019-02-24T13:03:28.873Z,45.88
2019-02-24T13:05:59.161Z,45.10
2019-02-24T13:08:29.435Z,45.01
2019-02-24T13:10:59.820Z,44.09
2019-02-24T13:13:30.154Z,42.56
2019-02-24T13:16:00.315Z,40.98
2019-02-24T13:18:30.554Z,39.67
2019-02-24T13:21:00.759Z,38.48
2019-02-24T13:23:30.976Z,37.24
2019-02-24T13:26:02.155Z,35.88
2019-02-24T13:28:34.541Z,34.96
2019-02-24T13:31:04.838Z,33.91
2019-02-24T13:33:35.172Z,33.27
2019-02-24T13:36:06.842Z,32.45
2019-02-24T13:38:37.098Z,31.31
2019-02-24T13:41:07.442Z,31.21
2019-02-24T13:43:37.831Z,30.70
2019-02-24T13:46:08.108Z,29.96
2019-02-24T13:48:38.491Z,29.53
2019-02-24T13:51:09.843Z,28.40
2019-02-24T13:53:40.288Z,27.50
2019-02-24T13:56:10.680Z,27.00
2019-02-24T13:58:41.095Z,26.10
2019-02-24T14:01:11.254Z,26.38
2019-02-24T14:03:41.595Z,27.29
2019-02-24T14:06:11.897Z,28.37
2019-02-24T14:08:42.209Z,29.25
2019-02-24T14:11:12.502Z,29.94
2019-02-24T14:13:42.736Z,30.72
2019-02-24T14:16:12.917Z,31.06
2019-02-24T14:18:43.103Z,31.56
2019-02-24T14:21:13.402Z,31.88
2019-02-24T14:23:43.642Z,32.55
2019-02-24T14:26:14.088Z,33.05
2019-02-24T14:28:48.230Z,33.29
2019-02-24T14:31:18.499Z,33.57
2019-02-24T14:33:48.829Z,33.74
2019-02-24T14:36:19.194Z,34.10
2019-02-24T14:38:49.516Z,33.88
2019-02-24T14:41:19.876Z,33.70
2019-02-24T14:43:50.655Z,33.64
2019-02-24T14:46:20.915Z,33.86
2019-02-24T14:48:51.330Z,34.18
2019-02-24T14:51:21.632Z,33.96
2019-02-24T14:53:51.937Z,33.80
2019-02-24T14:56:22.160Z,34.12
2019-02-24T14:58:52.471Z,34.29
2019-02-24T15:01:22.842Z,35.01
2019-02-24T15:03:54.857Z,35.44
2019-02-24T15:06:25.090Z,35.81
2019-02-24T15:08:55.371Z,36.03
2019-02-24T15:11:25.511Z,36.43
2019-02-24T15:13:55.693Z,36.32
2019-02-24T15:16:25.981Z,36.35
2019-02-24T15:18:56.170Z,36.50
2019-02-24T15:21:26.817Z,36.66
2019-02-24T15:23:56.961Z,36.93
2019-02-24T15:26:29.181Z,36.99
2019-02-24T15:28:59.201Z,37.06
2019-02-24T15:31:29.508Z,37.24
2019-02-24T15:33:59.774Z,37.26
2019-02-24T15:36:29.995Z,37.35
2019-02-24T15:39:00.281Z,37.62
2019-02-24T15:41:30.983Z,37.98
2019-02-24T15:44:01.452Z,38.46
2019-02-24T15:46:31.927Z,38.92
2019-02-24T15:49:02.537Z,39.34
2019-02-24T15:51:33.094Z,39.52
2019-02-24T15:54:03.690Z,39.97
2019-02-24T15:56:34.308Z,40.25
2019-02-24T15:59:04.846Z,40.43
2019-02-24T16:01:35.509Z,40.51
2019-02-24T16:04:07.503Z,40.60
2019-02-24T16:06:38.004Z,40.71
2019-02-24T16:09:10.790Z,40.86
2019-02-24T16:11:41.317Z,41.42
2019-02-24T16:14:11.787Z,41.85
2019-02-24T16:16:42.399Z,42.13
2019-02-24T16:19:15.650Z,42.44
2019-02-24T16:21:49.580Z,42.85
2019-02-24T16:24:20.116Z,43.32
2019-02-24T16:26:50.783Z,43.87
2019-02-24T16:29:21.333Z,44.35
2019-02-24T16:31:51.659Z,44.85
2019-02-24T16:34:22.242Z,45.29
2019-02-24T16:36:53.033Z,45.68
2019-02-24T16:39:23.605Z,46.18
2019-02-24T16:41:56.600Z,46.95
2019-02-24T16:44:27.210Z,47.52
2019-02-24T16:46:57.913Z,47.96
2019-02-24T16:49:29.834Z,48.58
2019-02-24T16:52:02.410Z,49.08
2019-02-24T16:54:32.807Z,49.39
2019-02-24T16:57:07.550Z,49.83
2019-02-24T16:59:37.245Z,50.49
2019-02-24T17:02:07.854Z,50.94
2019-02-24T17:04:38.572Z,51.22
2019-02-24T17:07:09.246Z,51.56
2019-02-24T17:09:42.263Z,51.81
2019-02-24T17:12:12.967Z,52.33
2019-02-24T17:14:46.654Z,52.75
2019-02-24T17:17:17.176Z,53.35
2019-02-24T17:19:47.887Z,53.67
2019-02-24T17:22:18.548Z,54.06
2019-02-24T17:24:49.000Z,54.49
2019-02-24T17:27:20.965Z,54.96
2019-02-24T17:29:58.842Z,55.29
2019-02-24T17:32:31.750Z,55.65
2019-02-24T17:35:02.225Z,56.13
2019-02-24T17:37:41.901Z,56.64
2019-02-24T17:40:13.660Z,57.02
2019-02-24T17:42:46.399Z,57.62
2019-02-24T17:45:17.246Z,58.08
2019-02-24T17:47:47.839Z,58.38
2019-02-24T17:50:18.547Z,58.70
2019-02-24T17:52:49.233Z,58.98
2019-02-24T17:55:19.697Z,59.30
2019-02-24T17:57:50.211Z,59.78
2019-02-24T18:00:26.772Z,60.04
2019-02-24T18:02:57.525Z,60.30
2019-02-24T18:05:28.085Z,60.42
2019-02-24T18:07:58.597Z,60.70
2019-02-24T18:10:29.214Z,60.85
2019-02-24T18:12:59.630Z,61.08
2019-02-24T18:15:30.199Z,61.34
2019-02-24T18:18:07.945Z,61.62
2019-02-24T18:20:38.470Z,61.80
2019-02-24T18:23:09.018Z,62.06
2019-02-24T18:25:39.583Z,62.38
2019-02-24T18:28:10.039Z,62.67
2019-02-24T18:30:40.721Z,63.01
2019-02-24T18:33:11.459Z,63.32
2019-02-24T18:35:41.983Z,63.49
2019-02-24T18:40:55.025Z,64.18
2019-02-24T18:43:25.616Z,64.09
2019-02-24T18:45:56.116Z,64.01
2019-02-24T18:48:26.852Z,64.05
2019-02-24T18:50:59.724Z,64.14
2019-02-24T18:53:31.601Z,64.30
2019-02-24T18:56:02.258Z,64.52
2019-02-24T18:58:32.992Z,64.74
2019-02-24T19:01:12.281Z,64.79
2019-02-24T19:03:42.979Z,64.79
2019-02-24T19:06:13.557Z,64.82
2019-02-24T19:08:44.959Z,64.98
2019-02-24T19:11:15.642Z,65.09
2019-02-24T19:13:46.328Z,65.33
2019-02-24T19:16:16.891Z,65.54
2019-02-24T19:18:47.524Z,65.67
2019-02-24T19:21:18.057Z,66.00
2019-02-24T19:23:48.690Z,66.19
2019-02-24T19:26:19.251Z,66.40
2019-02-24T19:28:49.842Z,66.67
2019-02-24T19:31:20.372Z,66.87
2019-02-24T19:33:50.989Z,67.06
2019-02-24T19:36:21.578Z,67.40
2019-02-24T19:41:16.397Z,67.63
2019-02-24T19:43:46.957Z,67.82
2019-02-24T19:46:17.487Z,67.96
2019-02-24T19:48:48.121Z,68.13
2019-02-24T19:53:48.892Z,68.60
2019-02-24T19:56:19.402Z,68.69
2019-02-24T19:58:50.076Z,68.80
2019-02-24T20:01:22.752Z,68.94
2019-02-24T20:03:53.811Z,69.08
2019-02-24T20:06:24.732Z,69.17
2019-02-24T20:08:55.688Z,69.30
2019-02-24T20:11:26.480Z,69.51
2019-02-24T20:13:57.128Z,69.51
2019-02-24T20:16:27.614Z,69.50
2019-02-24T20:18:58.114Z,69.56
2019-02-24T20:21:28.675Z,69.70
2019-02-24T20:23:59.314Z,69.92
2019-02-24T20:26:29.836Z,70.04
2019-02-24T20:29:00.355Z,70.16
2019-02-24T20:31:30.807Z,70.30
2019-02-24T20:34:01.323Z,70.47
2019-02-24T20:36:31.943Z,70.57
2019-02-24T20:39:02.466Z,70.63
2019-02-24T20:41:33.083Z,70.77
2019-02-24T20:44:03.748Z,70.95
2019-02-24T20:46:34.378Z,71.09
2019-02-24T20:49:04.814Z,71.16
2019-02-24T20:51:36.601Z,71.26
2019-02-24T20:54:07.314Z,71.34
2019-02-24T20:56:39.515Z,71.51
2019-02-24T20:59:09.983Z,71.68
2019-02-24T21:01:40.717Z,71.88
2019-02-24T21:04:11.231Z,72.06
2019-02-24T21:06:41.763Z,72.08
2019-02-24T21:09:12.384Z,72.25
2019-02-24T21:11:42.897Z,72.38
2019-02-24T21:14:13.963Z,72.57
2019-02-24T21:16:44.508Z,72.71
2019-02-24T21:19:15.158Z,72.80
2019-02-24T21:21:45.997Z,72.90
2019-02-24T21:24:16.666Z,73.13
2019-02-24T21:26:47.438Z,73.20
2019-02-24T21:29:17.985Z,73.27
2019-02-24T21:31:48.764Z,73.34
2019-02-24T21:34:19.291Z,73.48
2019-02-24T21:36:49.961Z,73.55
2019-02-24T21:39:20.532Z,73.58
2019-02-24T21:41:51.158Z,73.63
2019-02-24T21:44:21.736Z,73.72
2019-02-24T21:46:52.383Z,73.84
2019-02-24T21:49:22.945Z,73.93
2019-02-24T21:51:53.666Z,74.03
2019-02-24T21:54:24.283Z,74.12
2019-02-24T21:56:59.139Z,74.29
2019-02-24T21:59:36.802Z,74.39
2019-02-24T22:02:01.998Z,74.36
2019-02-24T22:04:32.504Z,74.34
2019-02-24T22:07:03.079Z,74.45
2019-02-24T22:09:33.621Z,74.61
2019-02-24T22:12:04.286Z,74.74
2019-02-24T22:14:34.854Z,74.90
2019-02-24T22:17:05.373Z,74.93
2019-02-24T22:19:35.843Z,74.98
2019-02-24T22:22:06.731Z,75.05
2019-02-24T22:24:37.031Z,75.18
2019-02-24T22:27:07.402Z,75.25
2019-02-24T22:29:37.736Z,75.36
2019-02-24T22:32:07.936Z,75.45
2019-02-24T22:34:38.213Z,75.56
2019-02-24T22:37:08.582Z,75.81
2019-02-24T22:39:38.897Z,75.85
2019-02-24T22:42:09.215Z,75.90
2019-02-24T22:44:39.499Z,75.99
2019-02-24T22:47:10.261Z,76.04
2019-02-24T22:49:40.686Z,76.20
2019-02-24T22:52:10.866Z,76.21
2019-02-24T22:54:41.166Z,76.26
2019-02-24T22:57:11.357Z,76.37
2019-02-24T22:59:41.547Z,76.52
2019-02-24T23:02:12.305Z,76.61
2019-02-24T23:04:42.497Z,76.62
2019-02-24T23:07:12.720Z,76.77
2019-02-24T23:09:42.965Z,76.80
2019-02-24T23:12:13.204Z,76.77
2019-02-24T23:14:43.531Z,76.76
2019-02-24T23:17:13.781Z,76.83
2019-02-24T23:19:44.010Z,76.97
2019-02-24T23:22:14.258Z,77.00
2019-02-24T23:24:44.432Z,77.12
2019-02-24T23:27:14.622Z,77.18
2019-02-24T23:29:44.759Z,77.21
2019-02-24T23:32:15.080Z,77.36
2019-02-24T23:34:45.345Z,77.42
2019-02-24T23:37:15.708Z,77.60
2019-02-24T23:39:45.973Z,77.61
2019-02-24T23:42:16.643Z,77.60
2019-02-24T23:44:46.766Z,77.61
2019-02-24T23:47:17.149Z,77.62
2019-02-24T23:49:47.393Z,77.53
2019-02-24T23:52:17.633Z,77.44
2019-02-24T23:54:47.760Z,77.46
2019-02-24T23:57:18.076Z,77.55
2019-02-24T23:59:48.272Z,77.63
